Norman Wells Airport
CYVQ : rendu visible

Aérodrome :











RETROUVEZ-NOUS SUR...

 
LOGIN :

S'inscrire | Disclaimer

   EN    FR    IT 

 









Légende :    VFR   VFR Marginal   IFR   IFR Intensif   IFR Très Intensif
Visi : 
Plafond : 
>= 8 km
>= 3000ft
5 à 8 km
1000 à 3000 ft
1500m à 5 km
500 à 1000 ft
800 à 1500m
200 à 500 ft
< 800m
< 200 ft
Symboles :   Orages  Brouillard  Fortes neiges  Fortes précipitations  Vent > 20 kt






- Altitude de l'aérodrome : 238 ft
- Code IATA : YVQ


CYVQ - Norman Wells

DERNIER METAR :
  • 242300Z 29006KT 30SM -SN BKN035 OVC050 M21/M25 A2991 RMK SC7SC1 SLP139

METARs EXPIRÉS :
  • 242200Z 28008KT 30SM -SN BKN040 OVC060 M21/M25 A2992 RMK SC7SC1 SLP145
  • 242100Z 29006KT 25SM -SN BKN040 OVC048 M21/M24 A2993 RMK SC6SC2 SLP146
  • 242000Z 27007KT 5SM -SN BKN040 OVC055 M21/M25 A2993 RMK SC7SC1 SLP147

TAF AMD TAF CYVQ
Valide du 24 à 18h jusqu'au 25 à 06h UTC


241843Z 2418/2506 VRB03KT 2SM -SN OVC020
TEMPO 2418/2506 P6SM -SN BKN030 OVC060 RMK NXT FCST BY 250000Z



MET'MAP, la Météo Aéronautique d'un coup d'oeil ! - Copyright ORBIFLY Décembre 2007 - Disclaimer

ORBIFLY MET'MAP TEAM :

Programmation & Développement : Alexandra Zaïnal
Sur une idée originale de : Baudouin d'Aumeries
Assistance à la programmation : Marc-Olivier Méhu
Soutien technique & logistique : Manuel Goepfert

Contact : metmap@orbifly.com




SOURCES & CREDITS :

   NOAA       Earth
Advisory